Time;durP1;ratioP1;P1;durP2;ratioP2;P2;SDS_P1;SDS_P2;PMS_P1;PMS_P2;Temp;Humidity;BMP_temperature;BMP_pressure;BME280_temperature;BME280_humidity;BME280_pressure;Samples;Min_cycle;Max_cycle;Signal;HPM_P1;HPM_P2
2023/10/25 00:00:10;;;;;;;37.23;20.10;;;12.00;99.90;;;;;;5180134;28;20649;-50
2023/10/25 00:02:41;;;;;;;40.53;20.20;;;12.00;99.90;;;;;;5182635;28;20215;-49
2023/10/25 00:05:12;;;;;;;32.90;18.83;;;12.00;99.90;;;;;;5199344;28;20184;-50
2023/10/25 00:07:42;;;;;;;42.23;19.40;;;11.90;99.90;;;;;;5183449;28;20649;-50
2023/10/25 00:10:13;;;;;;;29.80;17.27;;;11.90;99.90;;;;;;5182272;28;20188;-50
2023/10/25 00:12:44;;;;;;;41.97;19.10;;;11.90;99.90;;;;;;5183262;28;20689;-51
2023/10/25 00:15:15;;;;;;;35.00;18.53;;;11.90;99.90;;;;;;5177014;28;20191;-50
2023/10/25 00:17:45;;;;;;;32.77;18.50;;;11.90;99.90;;;;;;5181263;28;20629;-49
2023/10/25 00:20:16;;;;;;;35.03;18.03;;;11.90;99.90;;;;;;5186654;28;20610;-49
2023/10/25 00:22:47;;;;;;;35.50;18.80;;;11.90;99.90;;;;;;5184071;28;20184;-51
2023/10/25 00:25:17;;;;;;;27.30;16.97;;;11.90;99.90;;;;;;5184163;28;20621;-49
2023/10/25 00:27:48;;;;;;;42.40;18.77;;;11.90;99.90;;;;;;5182378;28;20708;-50
2023/10/25 00:30:19;;;;;;;44.73;20.23;;;11.90;99.90;;;;;;5185708;28;20571;-51
2023/10/25 00:32:50;;;;;;;32.53;17.00;;;11.90;99.90;;;;;;5183380;28;20212;-50
2023/10/25 00:35:21;;;;;;;29.27;16.30;;;11.90;99.90;;;;;;5176034;28;20450;-50
2023/10/25 00:37:51;;;;;;;54.83;24.50;;;11.90;99.90;;;;;;5184336;28;20645;-50
2023/10/25 00:40:22;;;;;;;28.70;17.57;;;11.90;99.90;;;;;;5185203;28;20190;-49
2023/10/25 00:42:57;;;;;;;27.90;16.83;;;11.90;99.90;;;;;;5176441;28;20654;-49
2023/10/25 00:45:29;;;;;;;36.43;17.47;;;11.90;99.90;;;;;;5185297;28;20199;-50
2023/10/25 00:47:59;;;;;;;21.73;16.03;;;11.90;99.90;;;;;;5185368;28;21042;-51
2023/10/25 00:50:30;;;;;;;38.73;18.43;;;11.90;99.90;;;;;;5183557;28;20555;-49
2023/10/25 00:53:01;;;;;;;25.10;15.40;;;11.90;99.90;;;;;;5184067;28;20204;-50
2023/10/25 00:55:32;;;;;;;28.73;16.60;;;11.90;99.90;;;;;;5185281;28;20507;-50
2023/10/25 00:58:03;;;;;;;35.20;18.30;;;11.80;99.90;;;;;;5187883;28;20200;-49
2023/10/25 01:00:34;;;;;;;27.27;15.70;;;11.90;99.90;;;;;;5186066;28;20184;-49
2023/10/25 01:03:07;;;;;;;36.93;18.67;;;11.80;99.90;;;;;;5185201;28;20801;-49
2023/10/25 01:05:39;;;;;;;29.37;16.33;;;11.90;99.90;;;;;;5183732;28;20188;-52
2023/10/25 01:08:09;;;;;;;43.23;20.50;;;11.80;99.90;;;;;;5185151;28;20498;-50
2023/10/25 01:10:40;;;;;;;23.07;13.33;;;11.80;99.90;;;;;;5184204;28;20986;-49
2023/10/25 01:13:11;;;;;;;23.50;13.87;;;11.80;99.90;;;;;;5187307;28;20299;-50
2023/10/25 01:15:42;;;;;;;16.43;11.50;;;11.70;99.90;;;;;;5185684;28;20597;-49
2023/10/25 01:18:16;;;;;;;34.83;16.37;;;11.60;99.90;;;;;;5184081;28;20287;-50
2023/10/25 01:20:47;;;;;;;13.33;10.93;;;11.60;99.90;;;;;;5185790;28;20188;-50
2023/10/25 01:23:17;;;;;;;16.37;11.50;;;11.50;99.90;;;;;;5184942;28;20520;-51
2023/10/25 01:25:48;;;;;;;12.43;10.27;;;11.50;99.90;;;;;;5184307;28;20184;-49
2023/10/25 01:28:19;;;;;;;17.13;12.30;;;11.60;99.90;;;;;;5186792;28;20209;-50
2023/10/25 01:30:50;;;;;;;11.83;10.53;;;11.60;99.90;;;;;;5187962;28;20222;-50
2023/10/25 01:33:20;;;;;;;13.93;11.30;;;11.60;99.90;;;;;;5185400;28;20220;-49
2023/10/25 01:35:52;;;;;;;15.33;11.97;;;11.60;99.90;;;;;;5186886;28;20180;-50
2023/10/25 01:38:25;;;;;;;12.40;11.07;;;11.60;99.90;;;;;;5184185;28;20827;-50
2023/10/25 01:40:56;;;;;;;14.10;10.80;;;11.60;99.90;;;;;;5200640;28;20435;-50
2023/10/25 01:43:28;;;;;;;12.30;10.27;;;11.60;99.90;;;;;;5181265;28;20434;-50
2023/10/25 01:45:58;;;;;;;10.70;9.30;;;11.60;99.90;;;;;;5184543;28;20212;-50
2023/10/25 01:48:33;;;;;;;11.97;10.60;;;11.60;99.90;;;;;;5185397;28;20549;-52
2023/10/25 01:51:06;;;;;;;13.23;11.83;;;11.60;99.90;;;;;;5183726;28;20193;-50
2023/10/25 01:53:37;;;;;;;37.27;17.87;;;11.60;99.90;;;;;;5184165;28;20466;-50
2023/10/25 01:56:08;;;;;;;21.63;13.30;;;11.60;99.90;;;;;;5182706;28;20439;-50
2023/10/25 01:58:38;;;;;;;28.13;16.33;;;11.60;99.90;;;;;;5182904;28;20444;-50
2023/10/25 02:01:09;;;;;;;20.90;13.37;;;11.60;99.90;;;;;;5184762;28;20176;-50
2023/10/25 02:03:40;;;;;;;13.30;11.90;;;11.60;99.90;;;;;;5186052;28;20196;-50
2023/10/25 02:06:15;;;;;;;36.93;19.07;;;11.70;99.90;;;;;;5185333;28;20188;-51
2023/10/25 02:08:45;;;;;;;21.00;13.50;;;11.70;99.90;;;;;;5185581;28;20214;-51
2023/10/25 02:11:16;;;;;;;30.73;18.33;;;11.70;99.90;;;;;;5183901;28;20443;-49
2023/10/25 02:13:47;;;;;;;26.07;16.33;;;11.60;99.90;;;;;;5184359;28;20299;-50
2023/10/25 02:16:18;;;;;;;28.23;17.83;;;11.60;99.90;;;;;;5183393;28;20190;-49
2023/10/25 02:18:49;;;;;;;24.90;17.33;;;11.60;99.90;;;;;;5198949;28;20251;-51
2023/10/25 02:21:19;;;;;;;24.20;17.37;;;11.60;99.90;;;;;;5180933;28;20282;-50
2023/10/25 02:23:50;;;;;;;54.40;24.17;;;11.60;99.90;;;;;;5184516;28;20190;-51
2023/10/25 02:26:21;;;;;;;45.83;23.43;;;11.60;99.90;;;;;;5181954;28;20184;-51
2023/10/25 02:28:51;;;;;;;36.97;20.63;;;11.60;99.90;;;;;;5183248;28;20208;-51
2023/10/25 02:31:22;;;;;;;44.13;22.33;;;11.60;99.90;;;;;;5186517;28;20245;-50
2023/10/25 02:33:53;;;;;;;40.53;22.67;;;11.60;99.90;;;;;;5179869;28;20177;-49
2023/10/25 02:36:24;;;;;;;63.40;27.60;;;11.60;99.90;;;;;;5183194;28;20188;-49
2023/10/25 02:38:55;;;;;;;32.07;19.80;;;11.50;99.90;;;;;;5181666;28;20210;-49
2023/10/25 02:41:25;;;;;;;79.17;28.43;;;11.50;99.90;;;;;;5181363;28;20439;-49
2023/10/25 02:43:57;;;;;;;71.43;26.53;;;11.50;99.90;;;;;;5182203;28;20181;-49
2023/10/25 02:46:28;;;;;;;100.30;35.70;;;11.50;99.90;;;;;;5185340;28;20226;-49
2023/10/25 02:49:04;;;;;;;42.37;22.67;;;11.40;99.90;;;;;;5183994;28;20459;-50
2023/10/25 02:51:36;;;;;;;121.83;39.57;;;11.40;99.90;;;;;;5179739;28;20207;-50
2023/10/25 02:54:07;;;;;;;45.90;23.87;;;11.50;99.90;;;;;;5181140;28;21010;-48
2023/10/25 02:56:38;;;;;;;64.63;28.20;;;11.50;99.90;;;;;;5181820;28;20466;-49
2023/10/25 02:59:09;;;;;;;42.20;21.47;;;11.50;99.90;;;;;;5182178;28;20275;-51
2023/10/25 03:01:40;;;;;;;66.20;27.70;;;11.50;99.90;;;;;;5182443;28;20184;-50
2023/10/25 03:04:17;;;;;;;43.37;23.83;;;11.50;99.90;;;;;;5182655;28;20212;-50
2023/10/25 03:06:48;;;;;;;39.57;22.83;;;11.50;99.90;;;;;;5179102;28;20181;-51
2023/10/25 03:09:18;;;;;;;41.27;22.40;;;11.50;99.90;;;;;;5178143;28;20979;-51
2023/10/25 03:11:49;;;;;;;47.40;24.30;;;11.50;99.90;;;;;;5181479;28;20623;-50
2023/10/25 03:14:20;;;;;;;38.10;21.93;;;11.50;99.90;;;;;;5182587;28;20184;-50
2023/10/25 03:16:59;;;;;;;35.80;20.87;;;11.40;99.90;;;;;;5182765;28;20259;-50
2023/10/25 03:19:30;;;;;;;38.17;22.27;;;11.40;99.90;;;;;;5180459;28;20204;-50
2023/10/25 03:22:02;;;;;;;36.67;21.80;;;11.40;99.90;;;;;;5184574;28;20447;-49
2023/10/25 03:24:33;;;;;;;54.83;28.10;;;11.40;99.90;;;;;;5180635;28;20191;-50
2023/10/25 03:27:07;;;;;;;33.30;22.60;;;11.40;99.90;;;;;;5182190;28;20439;-49
2023/10/25 03:29:38;;;;;;;113.90;41.33;;;11.40;99.90;;;;;;5182783;28;20218;-50
2023/10/25 03:32:09;;;;;;;38.47;23.97;;;11.30;99.90;;;;;;5183295;28;20521;-49
2023/10/25 03:34:45;;;;;;;42.83;25.50;;;11.30;99.90;;;;;;5182265;28;20431;-50
2023/10/25 03:37:25;;;;;;;60.03;30.70;;;11.30;99.90;;;;;;5181021;28;20485;-50
2023/10/25 03:39:55;;;;;;;81.63;36.40;;;11.30;99.90;;;;;;5183074;28;20459;-50
2023/10/25 03:42:26;;;;;;;63.87;30.33;;;11.20;99.90;;;;;;5179632;28;20442;-51
2023/10/25 03:44:57;;;;;;;36.80;22.63;;;11.20;99.90;;;;;;5183163;28;20653;-50
2023/10/25 03:47:31;;;;;;;39.70;25.90;;;11.20;99.90;;;;;;5182302;28;20443;-51
2023/10/25 03:50:03;;;;;;;36.57;25.33;;;11.20;99.90;;;;;;5180238;28;20204;-50
2023/10/25 03:52:34;;;;;;;35.50;24.23;;;11.20;99.90;;;;;;5186488;28;20447;-49
2023/10/25 03:55:07;;;;;;;38.30;25.70;;;11.20;99.90;;;;;;5183114;28;20463;-51
2023/10/25 03:57:39;;;;;;;37.33;23.40;;;11.20;99.90;;;;;;5186133;28;20288;-50
2023/10/25 04:00:13;;;;;;;29.80;21.67;;;11.20;99.90;;;;;;5171607;28;20467;-49
2023/10/25 04:02:43;;;;;;;61.47;27.80;;;11.20;99.90;;;;;;5184856;28;20490;-50
2023/10/25 04:05:14;;;;;;;24.70;18.37;;;11.20;99.90;;;;;;5186614;28;20435;-51
2023/10/25 04:07:45;;;;;;;47.47;24.70;;;11.10;99.90;;;;;;5186165;28;20188;-50
2023/10/25 04:10:16;;;;;;;77.93;31.20;;;11.10;99.90;;;;;;5187163;28;20212;-50
2023/10/25 04:12:46;;;;;;;68.07;32.70;;;11.10;99.90;;;;;;5186670;28;20207;-50
2023/10/25 04:15:17;;;;;;;52.77;27.13;;;11.10;99.90;;;;;;5183507;28;20180;-50
2023/10/25 04:17:48;;;;;;;34.43;22.20;;;11.10;99.90;;;;;;5186787;28;20708;-50
2023/10/25 04:20:19;;;;;;;27.17;20.47;;;11.10;99.90;;;;;;5183934;28;20180;-50
2023/10/25 04:22:49;;;;;;;51.20;25.13;;;11.10;99.90;;;;;;5198939;28;20184;-49
2023/10/25 04:25:20;;;;;;;29.27;21.17;;;11.00;99.90;;;;;;5169490;28;20215;-50
2023/10/25 04:27:51;;;;;;;43.67;24.47;;;11.00;99.90;;;;;;5185866;28;20208;-48
2023/10/25 04:30:25;;;;;;;42.13;22.73;;;11.00;99.90;;;;;;5186520;28;20699;-49
2023/10/25 04:32:55;;;;;;;34.03;22.10;;;11.00;99.90;;;;;;5183741;28;20208;-48
2023/10/25 04:35:26;;;;;;;32.63;21.33;;;10.90;99.90;;;;;;5186061;28;20438;-48
2023/10/25 04:37:57;;;;;;;71.20;32.50;;;10.90;99.90;;;;;;5184341;28;20561;-49
2023/10/25 04:40:29;;;;;;;70.87;33.73;;;10.90;99.90;;;;;;5175464;28;20434;-50
2023/10/25 04:43:02;;;;;;;51.33;26.50;;;10.80;99.90;;;;;;5185627;28;20435;-50
2023/10/25 04:45:38;;;;;;;35.70;22.57;;;10.70;99.90;;;;;;5180706;28;20443;-49
2023/10/25 04:48:09;;;;;;;34.27;22.53;;;10.60;99.90;;;;;;5185789;28;20473;-50
2023/10/25 04:50:40;;;;;;;33.73;20.70;;;10.50;99.90;;;;;;5198755;28;20438;-49
2023/10/25 04:53:11;;;;;;;39.23;22.33;;;10.50;99.90;;;;;;5185476;28;20216;-50
2023/10/25 04:55:46;;;;;;;47.30;23.33;;;10.40;99.90;;;;;;5184838;28;20985;-49
2023/10/25 04:58:18;;;;;;;52.03;26.77;;;10.30;99.90;;;;;;5186305;28;20290;-49
2023/10/25 05:00:49;;;;;;;33.53;22.43;;;10.20;99.90;;;;;;5184165;28;20427;-49
2023/10/25 05:03:20;;;;;;;45.73;25.70;;;10.20;99.90;;;;;;5184861;28;20840;-50
2023/10/25 05:05:51;;;;;;;41.70;24.30;;;10.10;99.90;;;;;;5184418;28;20211;-49
2023/10/25 05:08:22;;;;;;;52.73;26.93;;;10.10;99.90;;;;;;5184488;28;20207;-49
2023/10/25 05:10:54;;;;;;;51.13;26.73;;;10.10;99.90;;;;;;5185607;28;20177;-50
2023/10/25 05:13:25;;;;;;;63.33;28.90;;;10.00;99.90;;;;;;5184079;28;20204;-50
2023/10/25 05:15:56;;;;;;;36.70;23.90;;;10.00;99.90;;;;;;5182859;28;20435;-50
2023/10/25 05:18:28;;;;;;;35.57;23.43;;;10.00;99.90;;;;;;5182700;28;21062;-50
2023/10/25 05:21:00;;;;;;;34.40;23.40;;;10.00;99.90;;;;;;5182914;28;20215;-49
2023/10/25 05:23:33;;;;;;;39.00;25.73;;;10.00;99.90;;;;;;5182310;28;20436;-50
2023/10/25 05:26:04;;;;;;;47.47;28.30;;;10.00;99.90;;;;;;5184654;28;20431;-49
2023/10/25 05:28:35;;;;;;;51.53;29.00;;;10.00;99.90;;;;;;5186227;28;20451;-48
2023/10/25 05:31:07;;;;;;;38.77;23.93;;;9.90;99.90;;;;;;5182395;28;20447;-50
2023/10/25 05:33:38;;;;;;;45.20;25.17;;;9.90;99.90;;;;;;5181810;28;20509;-49
2023/10/25 05:36:09;;;;;;;40.90;24.03;;;9.90;99.90;;;;;;5183060;28;20435;-50
2023/10/25 05:38:40;;;;;;;39.20;26.13;;;9.80;99.90;;;;;;5181444;28;20212;-50
2023/10/25 05:41:22;;;;;;;80.53;34.83;;;9.80;99.90;;;;;;5181083;28;20424;-49
2023/10/25 05:44:13;;;;;;;37.33;25.77;;;9.70;99.90;;;;;;5185625;28;20521;-50
2023/10/25 05:46:43;;;;;;;48.77;23.77;;;9.70;99.90;;;;;;5201514;28;20427;-50
2023/10/25 05:49:14;;;;;;;112.23;41.27;;;9.70;99.90;;;;;;5184233;28;20493;-51
2023/10/25 05:51:46;;;;;;;46.87;27.50;;;9.60;99.90;;;;;;5175061;28;20192;-49
2023/10/25 05:54:19;;;;;;;39.30;24.40;;;9.60;99.90;;;;;;5180841;28;20482;-51
2023/10/25 05:56:52;;;;;;;85.80;36.80;;;9.60;99.90;;;;;;5181107;28;20794;-49
2023/10/25 05:59:23;;;;;;;51.97;29.90;;;9.60;99.90;;;;;;5181667;28;20836;-50
2023/10/25 06:02:10;;;;;;;49.20;26.80;;;9.60;99.90;;;;;;5182602;28;20420;-49
2023/10/25 06:04:42;;;;;;;49.77;28.60;;;9.60;99.90;;;;;;5186737;28;20819;-50
2023/10/25 06:07:13;;;;;;;44.77;27.90;;;9.60;99.90;;;;;;5184749;28;20970;-50
2023/10/25 06:09:44;;;;;;;67.57;28.83;;;9.60;99.90;;;;;;5181805;28;20875;-50
2023/10/25 06:12:16;;;;;;;51.30;28.40;;;9.70;99.90;;;;;;5183156;28;21494;-50
2023/10/25 06:14:49;;;;;;;45.30;27.87;;;9.70;99.90;;;;;;5179078;28;20589;-50
2023/10/25 06:17:23;;;;;;;102.70;41.43;;;9.70;99.90;;;;;;5183089;28;20430;-51
2023/10/25 06:19:54;;;;;;;65.17;31.47;;;9.80;99.90;;;;;;5184643;28;20983;-50
2023/10/25 06:22:24;;;;;;;58.07;30.63;;;9.80;99.90;;;;;;5183788;28;20440;-50
2023/10/25 06:24:55;;;;;;;45.60;26.30;;;9.80;99.90;;;;;;5179322;28;20543;-50
2023/10/25 06:27:26;;;;;;;47.90;27.67;;;9.90;99.90;;;;;;5182341;28;20214;-53
2023/10/25 06:29:57;;;;;;;74.97;35.67;;;10.00;99.90;;;;;;5182553;28;20207;-50
2023/10/25 06:32:28;;;;;;;51.03;29.70;;;10.10;99.90;;;;;;5179712;28;20253;-51
2023/10/25 06:34:58;;;;;;;48.13;27.27;;;10.20;99.90;;;;;;5185144;28;20168;-52
2023/10/25 06:37:30;;;;;;;141.87;46.43;;;10.20;99.90;;;;;;5183527;28;20572;-51
2023/10/25 06:40:01;;;;;;;47.83;28.77;;;10.20;99.90;;;;;;5179733;28;20200;-51
2023/10/25 06:42:32;;;;;;;47.43;28.27;;;10.30;99.90;;;;;;5177223;28;21017;-51
2023/10/25 06:45:03;;;;;;;42.93;26.90;;;10.50;99.90;;;;;;5181352;28;20523;-50
2023/10/25 06:47:34;;;;;;;93.40;39.47;;;10.60;99.90;;;;;;5182747;28;20479;-50
2023/10/25 06:50:06;;;;;;;47.27;29.40;;;10.70;99.90;;;;;;5180625;28;20482;-49
2023/10/25 06:52:40;;;;;;;54.53;31.33;;;10.70;99.90;;;;;;5177245;28;20459;-51
2023/10/25 06:55:11;;;;;;;70.43;36.50;;;10.80;99.90;;;;;;5183196;28;20431;-50
2023/10/25 06:57:42;;;;;;;95.77;39.27;;;10.80;99.90;;;;;;5183175;28;20830;-49
2023/10/25 07:00:13;;;;;;;50.03;29.60;;;11.30;99.90;;;;;;5182189;28;20882;-51
2023/10/25 07:02:53;;;;;;;76.27;35.50;;;11.60;99.90;;;;;;5183989;28;20494;-51
2023/10/25 07:05:24;;;;;;;55.20;29.03;;;11.40;99.90;;;;;;5181103;28;20526;-51
2023/10/25 07:07:56;;;;;;;44.27;26.10;;;11.10;99.90;;;;;;5185951;28;20439;-50
2023/10/25 07:10:27;;;;;;;43.90;26.17;;;11.00;99.90;;;;;;5178284;28;20963;-50
2023/10/25 07:12:59;;;;;;;43.80;27.27;;;10.80;99.90;;;;;;5180778;28;20463;-51
2023/10/25 07:15:32;;;;;;;59.10;31.50;;;10.80;99.90;;;;;;5183107;28;20924;-50
2023/10/25 07:18:03;;;;;;;55.83;31.73;;;10.70;99.90;;;;;;5183923;28;20462;-50
2023/10/25 07:20:34;;;;;;;68.57;32.40;;;10.70;99.90;;;;;;5184277;28;20566;-51
2023/10/25 07:23:04;;;;;;;53.47;30.90;;;10.70;99.90;;;;;;5178690;28;20214;-51
2023/10/25 07:25:38;;;;;;;46.83;27.27;;;10.70;99.90;;;;;;5185056;28;20185;-53
2023/10/25 07:28:09;;;;;;;73.80;34.80;;;10.70;99.90;;;;;;5185559;28;20287;-52
2023/10/25 07:30:40;;;;;;;46.23;27.27;;;10.70;99.90;;;;;;5189144;28;20450;-50
2023/10/25 07:33:12;;;;;;;77.57;36.10;;;10.70;99.90;;;;;;5171146;28;20459;-50
2023/10/25 07:35:43;;;;;;;79.10;36.70;;;10.70;99.90;;;;;;5187577;28;20188;-51
2023/10/25 07:38:15;;;;;;;56.23;29.47;;;10.80;99.90;;;;;;5189220;28;20798;-51
2023/10/25 07:40:48;;;;;;;62.27;32.37;;;10.90;99.90;;;;;;5201364;28;20435;-50
2023/10/25 07:43:20;;;;;;;47.73;27.63;;;10.90;99.90;;;;;;5187667;28;20493;-52
2023/10/25 07:45:51;;;;;;;46.17;28.77;;;11.00;99.90;;;;;;5187346;28;20947;-51
2023/10/25 07:48:21;;;;;;;51.60;26.23;;;11.30;99.90;;;;;;5188349;28;20457;-50
2023/10/25 07:50:52;;;;;;;44.40;27.80;;;11.40;99.90;;;;;;5187907;28;20187;-51
2023/10/25 07:53:23;;;;;;;45.13;26.60;;;11.70;99.90;;;;;;5186797;28;20676;-51
2023/10/25 07:55:53;;;;;;;45.20;27.07;;;11.80;99.90;;;;;;5179079;28;20643;-51
2023/10/25 07:58:24;;;;;;;39.33;25.30;;;12.00;99.90;;;;;;5183257;28;20204;-49
2023/10/25 08:00:55;;;;;;;33.40;22.37;;;12.10;99.90;;;;;;5182332;28;20173;-51
2023/10/25 08:03:28;;;;;;;39.00;23.27;;;12.20;99.90;;;;;;5184475;28;20184;-51
2023/10/25 08:05:59;;;;;;;41.60;23.40;;;12.30;99.90;;;;;;5180896;28;20545;-49
2023/10/25 08:08:30;;;;;;;32.03;20.73;;;12.40;99.90;;;;;;5186329;28;20435;-49
2023/10/25 08:11:05;;;;;;;28.17;20.53;;;12.50;99.90;;;;;;5183669;28;20224;-51
2023/10/25 08:13:40;;;;;;;29.97;20.70;;;12.60;99.90;;;;;;5180734;28;20216;-51
2023/10/25 08:16:10;;;;;;;31.30;21.20;;;12.70;99.90;;;;;;5183528;28;20972;-51
2023/10/25 08:18:41;;;;;;;35.53;21.97;;;12.80;99.90;;;;;;5183458;28;20473;-51
2023/10/25 08:21:13;;;;;;;30.00;19.80;;;12.70;99.90;;;;;;5183894;28;20232;-52
2023/10/25 08:23:51;;;;;;;25.13;18.57;;;12.70;99.90;;;;;;5185394;28;20183;-50
2023/10/25 08:26:25;;;;;;;30.63;18.37;;;12.60;99.90;;;;;;5184775;28;20434;-51
2023/10/25 08:28:56;;;;;;;25.97;16.97;;;12.60;99.90;;;;;;5180659;28;21048;-52
2023/10/25 08:31:26;;;;;;;25.17;16.63;;;12.60;99.90;;;;;;5179175;28;20447;-50
2023/10/25 08:33:57;;;;;;;25.30;15.30;;;12.70;99.90;;;;;;5185196;28;20204;-50
2023/10/25 08:36:30;;;;;;;25.17;17.50;;;12.70;99.90;;;;;;5184845;28;20887;-51
2023/10/25 08:39:01;;;;;;;24.80;17.10;;;12.80;99.90;;;;;;5181708;28;20470;-50
2023/10/25 08:41:35;;;;;;;24.80;16.63;;;13.00;99.90;;;;;;5185681;28;20425;-50
2023/10/25 08:44:08;;;;;;;36.53;18.20;;;13.00;99.90;;;;;;5185571;28;20418;-50
2023/10/25 08:46:40;;;;;;;25.20;16.10;;;13.10;99.90;;;;;;5182645;28;20511;-52
2023/10/25 08:49:11;;;;;;;27.07;16.30;;;13.10;99.90;;;;;;5181980;28;20459;-51
2023/10/25 08:51:45;;;;;;;24.87;17.20;;;13.10;99.90;;;;;;5184532;28;20434;-51
2023/10/25 08:54:18;;;;;;;23.07;16.87;;;13.30;99.90;;;;;;5184611;28;20754;-51
2023/10/25 08:56:49;;;;;;;20.67;15.40;;;13.60;99.90;;;;;;5185526;28;20823;-50
2023/10/25 08:59:20;;;;;;;23.93;17.37;;;13.90;99.90;;;;;;5188010;28;20466;-52
2023/10/25 09:01:51;;;;;;;20.40;15.23;;;14.20;99.90;;;;;;5184728;28;20443;-52
2023/10/25 09:04:21;;;;;;;21.67;15.83;;;14.20;99.90;;;;;;5185514;28;20258;-51
2023/10/25 09:06:52;;;;;;;28.27;17.07;;;14.10;99.90;;;;;;5180946;28;20177;-52
2023/10/25 09:09:23;;;;;;;28.10;16.60;;;13.90;99.90;;;;;;5180012;28;20200;-50
2023/10/25 09:11:53;;;;;;;18.87;15.10;;;13.60;99.90;;;;;;5185322;28;20176;-50
2023/10/25 09:14:24;;;;;;;17.43;13.50;;;13.50;99.90;;;;;;5187026;28;20187;-51
2023/10/25 09:16:55;;;;;;;21.83;13.67;;;13.40;99.90;;;;;;5179759;28;20310;-50
2023/10/25 09:19:26;;;;;;;22.77;16.07;;;13.40;99.90;;;;;;5182157;28;20223;-51
2023/10/25 09:21:57;;;;;;;20.83;15.30;;;13.50;99.90;;;;;;5178770;28;20493;-53
2023/10/25 09:24:27;;;;;;;22.70;15.63;;;13.50;99.90;;;;;;5184801;28;20192;-51
2023/10/25 09:27:06;;;;;;;16.80;13.30;;;13.40;99.90;;;;;;5185036;28;20195;-52
2023/10/25 09:29:37;;;;;;;25.67;15.27;;;13.20;99.90;;;;;;5186673;28;20204;-50
2023/10/25 09:32:08;;;;;;;14.43;12.87;;;13.20;99.90;;;;;;5184933;28;20455;-51
2023/10/25 09:34:39;;;;;;;17.80;13.57;;;13.20;99.90;;;;;;5183334;28;20184;-52
2023/10/25 09:37:10;;;;;;;17.50;13.60;;;13.30;99.90;;;;;;5179650;28;20793;-50
2023/10/25 09:39:41;;;;;;;24.17;14.17;;;13.30;99.90;;;;;;5178380;28;20644;-53
2023/10/25 09:42:14;;;;;;;18.97;12.83;;;13.30;99.90;;;;;;5184030;28;20499;-52
2023/10/25 09:44:47;;;;;;;18.87;14.30;;;13.50;99.90;;;;;;5168562;28;20246;-52
2023/10/25 09:47:18;;;;;;;22.17;14.50;;;13.50;99.90;;;;;;5185006;28;20458;-50
2023/10/25 09:49:56;;;;;;;17.43;12.80;;;13.60;99.90;;;;;;5184134;28;20960;-51
2023/10/25 09:52:29;;;;;;;17.47;13.50;;;13.80;99.90;;;;;;5177799;28;20505;-51
2023/10/25 09:55:08;;;;;;;15.03;12.90;;;14.30;99.90;;;;;;5178232;28;20429;-52
2023/10/25 09:57:41;;;;;;;20.00;14.20;;;14.60;99.90;;;;;;5183593;28;20463;-51
2023/10/25 10:00:14;;;;;;;24.50;13.20;;;14.80;99.90;;;;;;5184867;28;20455;-52
2023/10/25 10:03:06;;;;;;;20.97;14.10;;;14.80;99.90;;;;;;5185496;28;20446;-51
2023/10/25 10:05:48;;;;;;;17.80;12.47;;;14.60;99.90;;;;;;5184385;28;20435;-51
2023/10/25 10:08:27;;;;;;;20.30;12.33;;;14.60;99.90;;;;;;5179735;28;20465;-51
2023/10/25 10:11:00;;;;;;;16.57;13.30;;;14.60;99.90;;;;;;5195965;28;20442;-51
2023/10/25 10:13:30;;;;;;;15.73;12.53;;;14.60;99.90;;;;;;5179830;28;20473;-50
2023/10/25 10:16:08;;;;;;;13.53;12.10;;;14.50;99.90;;;;;;5185844;28;20443;-51
2023/10/25 10:18:47;;;;;;;22.47;13.40;;;14.40;99.90;;;;;;5182615;28;20290;-51
2023/10/25 10:21:18;;;;;;;17.20;12.40;;;14.50;99.90;;;;;;5183850;28;20431;-50
2023/10/25 10:23:49;;;;;;;20.07;13.87;;;14.40;99.90;;;;;;5185169;28;20438;-51
2023/10/25 10:26:46;;;;;;;19.30;14.40;;;14.40;99.90;;;;;;5196564;28;20423;-50
2023/10/25 10:29:42;;;;;;;17.30;12.63;;;14.50;99.90;;;;;;5175536;28;20564;-51
2023/10/25 10:32:14;;;;;;;17.83;12.60;;;14.50;99.90;;;;;;5179312;28;20474;-52
2023/10/25 10:34:53;;;;;;;22.30;12.00;;;14.50;99.90;;;;;;5183156;28;20439;-51
2023/10/25 10:37:26;;;;;;;16.50;13.13;;;14.40;99.90;;;;;;5185181;28;20443;-51
2023/10/25 10:39:57;;;;;;;19.87;13.87;;;14.30;99.90;;;;;;5183686;28;20461;-51
2023/10/25 10:42:30;;;;;;;16.23;11.60;;;14.20;99.90;;;;;;5185198;28;20439;-51
2023/10/25 10:45:07;;;;;;;18.23;13.07;;;14.20;99.90;;;;;;5183827;28;20187;-50
2023/10/25 10:47:53;;;;;;;15.37;12.73;;;14.20;99.90;;;;;;5181938;28;20419;-51
2023/10/25 10:50:25;;;;;;;19.83;12.07;;;14.20;99.90;;;;;;5184360;28;20451;-50
2023/10/25 10:52:57;;;;;;;18.03;10.70;;;14.30;99.90;;;;;;5179247;28;20462;-50
2023/10/25 10:55:28;;;;;;;13.83;11.53;;;14.30;99.90;;;;;;5180243;28;20784;-52
2023/10/25 10:57:58;;;;;;;17.30;11.73;;;14.40;99.90;;;;;;5177126;28;20808;-56
2023/10/25 11:00:30;;;;;;;16.57;10.63;;;14.50;99.90;;;;;;5175595;28;20658;-51
2023/10/25 11:03:02;;;;;;;17.40;10.50;;;14.60;99.90;;;;;;5163740;28;20188;-51
2023/10/25 11:05:35;;;;;;;15.53;11.30;;;14.60;99.90;;;;;;5198193;28;20439;-52
2023/10/25 11:08:13;;;;;;;13.97;10.83;;;14.50;99.90;;;;;;5148297;28;20456;-50
2023/10/25 11:10:44;;;;;;;13.07;10.47;;;14.70;99.90;;;;;;5164023;28;21085;-52
2023/10/25 11:13:17;;;;;;;13.07;10.53;;;14.70;99.90;;;;;;5183577;28;20470;-51
2023/10/25 11:15:47;;;;;;;15.30;11.23;;;14.80;99.90;;;;;;5196620;28;20187;-53
2023/10/25 11:18:18;;;;;;;10.40;8.87;;;14.70;99.90;;;;;;5178234;28;20467;-52
2023/10/25 11:20:49;;;;;;;10.00;9.00;;;14.60;99.90;;;;;;5180865;28;20267;-51
2023/10/25 11:23:20;;;;;;;9.50;7.90;;;14.60;99.90;;;;;;5179017;28;20193;-54
2023/10/25 11:25:51;;;;;;;15.33;9.57;;;14.80;99.90;;;;;;5179710;28;20254;-51
2023/10/25 11:28:23;;;;;;;8.10;6.97;;;14.90;99.90;;;;;;5182559;28;20215;-51
2023/10/25 11:31:01;;;;;;;6.10;5.50;;;15.00;99.90;;;;;;5185023;28;20435;-49
2023/10/25 11:33:44;;;;;;;7.13;5.73;;;15.00;99.90;;;;;;5182934;28;20535;-50
2023/10/25 11:36:15;;;;;;;8.03;6.40;;;15.10;99.90;;;;;;5182295;28;20951;-51
2023/10/25 11:38:46;;;;;;;9.20;6.47;;;15.10;99.90;;;;;;5183003;28;20624;-51
2023/10/25 11:41:17;;;;;;;19.83;6.43;;;14.90;99.90;;;;;;5180295;28;20184;-50
2023/10/25 11:43:48;;;;;;;8.40;6.00;;;14.70;99.90;;;;;;5183039;28;20434;-52
2023/10/25 11:46:20;;;;;;;6.63;5.87;;;14.50;99.90;;;;;;5182190;28;20184;-52
2023/10/25 11:48:50;;;;;;;5.93;5.10;;;14.30;99.90;;;;;;5181265;28;20466;-51
2023/10/25 11:51:24;;;;;;;14.83;7.97;;;14.20;99.90;;;;;;5181598;28;20423;-50
2023/10/25 11:53:55;;;;;;;10.17;7.10;;;14.20;99.90;;;;;;5181660;28;20308;-50
2023/10/25 11:56:26;;;;;;;11.63;7.70;;;14.30;99.90;;;;;;5177646;28;20439;-52
2023/10/25 11:58:56;;;;;;;13.10;7.50;;;14.40;99.90;;;;;;5181554;28;20668;-51
2023/10/25 12:01:27;;;;;;;6.87;6.20;;;14.40;99.90;;;;;;5181569;28;20188;-50
2023/10/25 12:03:58;;;;;;;12.03;6.90;;;14.30;99.90;;;;;;5179264;28;20190;-51
2023/10/25 12:06:29;;;;;;;5.07;4.63;;;14.20;99.90;;;;;;5179735;28;20231;-50
2023/10/25 12:09:00;;;;;;;6.70;6.10;;;14.10;99.90;;;;;;5183532;28;20204;-50
2023/10/25 12:11:30;;;;;;;6.20;5.43;;;14.00;99.90;;;;;;5179348;28;20244;-51
2023/10/25 12:14:01;;;;;;;8.87;5.53;;;13.90;99.90;;;;;;5186232;28;20975;-50
2023/10/25 12:16:32;;;;;;;5.93;4.97;;;13.70;99.90;;;;;;5184662;28;20651;-51
2023/10/25 12:19:02;;;;;;;6.37;5.63;;;13.60;99.90;;;;;;5182718;28;20708;-51
2023/10/25 12:21:33;;;;;;;7.20;5.27;;;13.50;99.90;;;;;;5183945;28;20651;-51
2023/10/25 12:24:04;;;;;;;5.80;5.20;;;13.60;99.90;;;;;;5185526;28;20681;-52
2023/10/25 12:26:35;;;;;;;13.67;6.27;;;13.60;99.90;;;;;;5185355;28;20642;-51
2023/10/25 12:29:06;;;;;;;5.23;3.70;;;13.60;99.90;;;;;;5183326;28;20463;-51
2023/10/25 12:31:36;;;;;;;9.67;6.33;;;13.60;99.90;;;;;;5186050;28;20263;-51
2023/10/25 12:34:07;;;;;;;9.53;6.77;;;13.50;99.90;;;;;;5185721;28;20204;-52
2023/10/25 12:36:38;;;;;;;11.40;6.80;;;13.60;99.90;;;;;;5184302;28;20180;-52
2023/10/25 12:39:09;;;;;;;5.67;5.13;;;13.70;99.90;;;;;;5181523;28;20200;-50
2023/10/25 12:41:39;;;;;;;8.73;5.57;;;13.70;99.90;;;;;;5186911;28;20262;-50
2023/10/25 12:44:12;;;;;;;6.37;5.37;;;13.70;99.90;;;;;;5186442;28;20714;-51
2023/10/25 12:46:43;;;;;;;5.60;5.03;;;13.80;99.90;;;;;;5185453;28;20180;-50
2023/10/25 12:49:16;;;;;;;4.47;3.67;;;14.00;99.90;;;;;;5169608;28;20539;-52
2023/10/25 12:51:47;;;;;;;11.10;6.77;;;14.10;99.90;;;;;;5185162;28;20428;-51
2023/10/25 12:54:18;;;;;;;6.40;4.40;;;14.10;99.90;;;;;;5185414;28;20763;-52